LLHA

Details ICAO LLHA (HFA)
Name Haifa
Region Israel
Timezone Asia/Jerusalem (UTC+3.0)
Plans Departing 186
Arriving 124
Stats Elevation 28 ft / 9 m (AMSL)
Location 32.811100° 35.044100°
Runways 1
Magnetic Variation 4.982° E
Sunrise 2020-05-24 02:36:58 UTC / 2020-05-24 05:36:58 Local
Sunset 2020-05-24 16:39:18 UTC / 2020-05-24 19:39:18 Local
Advertisement - Login to hide

Runways

ID Width Length Bearing (true/mag) Surface Threshold Overrun Markings Lighting
16 98 ft / 30 m 4,161 ft / 1,268 m 158.88° / 153.90° ASPHALT 164 ft / 50 m 0 ft / 0 m APP EDGE THRESHOLD REIL-OMNI
34 98 ft / 30 m 4,161 ft / 1,268 m 338.88° / 333.90° ASPHALT 380 ft / 116 m 90 ft / 27 m APP EDGE THRESHOLD

Map

Weather


0- 5 10 15 20 25 30 35+ Temperature / °C

Clouds and Precipitation
Forecast for 2020-05-24 18:00 UTC. Updated 6 hours ago

Ground ~20,000 ft ~40,000 ft Winds

METAR

Not found

TAF

TAF LLHA 241708Z 2418/2518 25008KT 9999 FEW040 TEMPO 2505/2514 25015KT SCT035 TX24/2511Z TN18/2503Z

Frequencies

Ground 127.80 MHz
Tower 133.00 MHz
Warning: Do not use this data for real-world aviation or navigation. No guarantee of current accuracy is given.